RYR84KK LEAM-EBCI
Flight info
| Callsign | RYR84KK |
|---|---|
| Flight time | N/A |
| Altitude | 34000 |
| Route | ESILA N865 VTB DCT RBO DCT OSTIX DCT GASMO DCT DGO N858 ABRIX DCT CNA DCT ADABI DCT BOKNO UN858 VANAD UN874 BAMES UT191 PODEM UN873 BAZOS DCT BELDI DCT VEKIN Z173 ARVOL |
| Aircraft | B738/M-SDE2E3FGHIRWXY/LB1 |
Departure
| Time | 2026-04-21 19:31 |
|---|---|
| Airport | Almería Airport (LEAM) |
Arrival
| Time | N/A |
|---|---|
| Airport | Brussels South Charleroi Airport (EBCI) |
| Time | Latitude | Longitude | Altitude | Speed | Heading |
|---|---|---|---|---|---|
| 2026-04-21 18:51 | 36.84632 | -2.37331 | 59 ft | 0 kts | 114° |
| 2026-04-21 19:24 | 36.84629 | -2.37330 | 68 ft | 1 kts | 148° |
| 2026-04-21 19:24 | 36.84615 | -2.37326 | 64 ft | 3 kts | 165° |
| 2026-04-21 19:24 | 36.84588 | -2.37315 | 60 ft | 5 kts | 161° |
| 2026-04-21 19:25 | 36.84582 | -2.37281 | 62 ft | 5 kts | 53° |
| 2026-04-21 19:25 | 36.84597 | -2.37257 | 64 ft | 4 kts | 72° |
| 2026-04-21 19:25 | 36.84604 | -2.37223 | 67 ft | 8 kts | 77° |
| 2026-04-21 19:25 | 36.84619 | -2.37127 | 67 ft | 12 kts | 78° |
| 2026-04-21 19:26 | 36.84640 | -2.37030 | 61 ft | 11 kts | 74° |
| 2026-04-21 19:26 | 36.84641 | -2.36935 | 65 ft | 11 kts | 117° |
| 2026-04-21 19:26 | 36.84612 | -2.36845 | 61 ft | 11 kts | 86° |
| 2026-04-21 19:26 | 36.84633 | -2.36751 | 62 ft | 11 kts | 73° |
| 2026-04-21 19:27 | 36.84655 | -2.36661 | 58 ft | 11 kts | 73° |
| 2026-04-21 19:27 | 36.84676 | -2.36573 | 63 ft | 11 kts | 73° |
| 2026-04-21 19:27 | 36.84701 | -2.36475 | 60 ft | 12 kts | 73° |
| 2026-04-21 19:27 | 36.84725 | -2.36374 | 60 ft | 12 kts | 73° |
| 2026-04-21 19:28 | 36.84749 | -2.36276 | 63 ft | 12 kts | 73° |
| 2026-04-21 19:28 | 36.84773 | -2.36180 | 63 ft | 11 kts | 73° |
| 2026-04-21 19:28 | 36.84796 | -2.36087 | 62 ft | 12 kts | 73° |
| 2026-04-21 19:28 | 36.84834 | -2.35932 | 62 ft | 23 kts | 73° |
| 2026-04-21 19:29 | 36.84881 | -2.35742 | 63 ft | 23 kts | 73° |
| 2026-04-21 19:29 | 36.84925 | -2.35558 | 63 ft | 21 kts | 73° |
| 2026-04-21 19:29 | 36.84949 | -2.35411 | 63 ft | 17 kts | 101° |
| 2026-04-21 19:29 | 36.84870 | -2.35320 | 57 ft | 16 kts | 163° |
| 2026-04-21 19:30 | 36.84805 | -2.35336 | 60 ft | 10 kts | 250° |
| 2026-04-21 19:30 | 36.84753 | -2.35559 | 57 ft | 59 kts | 252° |
| 2026-04-21 19:30 | 36.84561 | -2.36337 | 56 ft | 126 kts | 253° |
| 2026-04-21 19:30 | 36.84268 | -2.37584 | 253 ft | 164 kts | 253° |
| 2026-04-21 19:31 | 36.83951 | -2.38924 | 1094 ft | 162 kts | 253° |
| 2026-04-21 19:31 | 36.83611 | -2.40323 | 1728 ft | 176 kts | 253° |
| 2026-04-21 19:31 | 36.83244 | -2.41827 | 2425 ft | 183 kts | 253° |
| 2026-04-21 19:31 | 36.82847 | -2.43408 | 2962 ft | 204 kts | 255° |
| 2026-04-21 19:32 | 36.82395 | -2.45226 | 3172 ft | 232 kts | 254° |
| 2026-04-21 19:32 | 36.81903 | -2.47193 | 3818 ft | 240 kts | 254° |
| 2026-04-21 19:32 | 36.81407 | -2.49168 | 4757 ft | 238 kts | 254° |
| 2026-04-21 19:32 | 36.80914 | -2.51137 | 5617 ft | 238 kts | 254° |
| 2026-04-21 19:33 | 36.80584 | -2.52470 | 6212 ft | 238 kts | 254° |
| 2026-04-21 19:33 | 36.80095 | -2.54453 | 7010 ft | 240 kts | 254° |
| 2026-04-21 19:33 | 36.79600 | -2.56458 | 7791 ft | 243 kts | 253° |
| 2026-04-21 19:33 | 36.79099 | -2.58484 | 8565 ft | 246 kts | 253° |
| 2026-04-21 19:34 | 36.78591 | -2.60534 | 9364 ft | 248 kts | 253° |
| 2026-04-21 19:34 | 36.78094 | -2.62608 | 10127 ft | 251 kts | 258° |
| 2026-04-21 19:34 | 36.78142 | -2.64760 | 10818 ft | 257 kts | 285° |
| 2026-04-21 19:34 | 36.79029 | -2.66743 | 11556 ft | 265 kts | 310° |
| 2026-04-21 19:35 | 36.80522 | -2.68075 | 12357 ft | 272 kts | 332° |
| 2026-04-21 19:35 | 36.84228 | -2.69567 | 13770 ft | 284 kts | 339° |
| 2026-04-21 19:35 | 36.86130 | -2.70255 | 14465 ft | 286 kts | 338° |
| 2026-04-21 19:36 | 36.88027 | -2.70947 | 15097 ft | 289 kts | 338° |
| 2026-04-21 19:36 | 36.89972 | -2.71666 | 15718 ft | 293 kts | 338° |
| 2026-04-21 19:36 | 36.91940 | -2.72402 | 16335 ft | 298 kts | 338° |
| 2026-04-21 19:36 | 36.93939 | -2.73155 | 16972 ft | 301 kts | 338° |
| 2026-04-21 19:37 | 36.95958 | -2.73920 | 17610 ft | 305 kts | 337° |
| 2026-04-21 19:37 | 36.98009 | -2.74699 | 18185 ft | 311 kts | 337° |
| 2026-04-21 19:37 | 37.00087 | -2.75490 | 18771 ft | 313 kts | 338° |
| 2026-04-21 19:37 | 37.02180 | -2.76287 | 19368 ft | 316 kts | 338° |
| 2026-04-21 19:38 | 37.04225 | -2.77264 | 19889 ft | 312 kts | 321° |
| 2026-04-21 19:38 | 37.05773 | -2.79106 | 20237 ft | 310 kts | 299° |
| 2026-04-21 19:38 | 37.06837 | -2.81503 | 20365 ft | 322 kts | 292° |
| 2026-04-21 19:38 | 37.07851 | -2.84087 | 20491 ft | 340 kts | 292° |
| 2026-04-21 19:39 | 37.08909 | -2.86814 | 20643 ft | 356 kts | 292° |
| 2026-04-21 19:39 | 37.10019 | -2.89666 | 20743 ft | 372 kts | 292° |
| 2026-04-21 19:39 | 37.11177 | -2.92613 | 21089 ft | 381 kts | 292° |
| 2026-04-21 19:39 | 37.12357 | -2.95593 | 21718 ft | 382 kts | 292° |
| 2026-04-21 19:40 | 37.13541 | -2.98577 | 22269 ft | 384 kts | 292° |
| 2026-04-21 19:40 | 37.14735 | -3.01586 | 22743 ft | 388 kts | 292° |
| 2026-04-21 19:40 | 37.15945 | -3.04634 | 23193 ft | 393 kts | 292° |
| 2026-04-21 19:40 | 37.17166 | -3.07713 | 23682 ft | 395 kts | 292° |
| 2026-04-21 19:41 | 37.18392 | -3.10806 | 24143 ft | 397 kts | 292° |
| 2026-04-21 19:41 | 37.19624 | -3.13921 | 24579 ft | 400 kts | 292° |
| 2026-04-21 19:41 | 37.20861 | -3.17051 | 25003 ft | 402 kts | 292° |
| 2026-04-21 19:41 | 37.22107 | -3.20205 | 25418 ft | 405 kts | 292° |
| 2026-04-21 19:42 | 37.23362 | -3.23386 | 25832 ft | 407 kts | 292° |
| 2026-04-21 19:42 | 37.24619 | -3.26576 | 26262 ft | 409 kts | 292° |
| 2026-04-21 19:42 | 37.25889 | -3.29788 | 26627 ft | 412 kts | 292° |
| 2026-04-21 19:42 | 37.27182 | -3.33018 | 26980 ft | 415 kts | 292° |
| 2026-04-21 19:43 | 37.28487 | -3.36263 | 27372 ft | 417 kts | 292° |
| 2026-04-21 19:43 | 37.29795 | -3.39518 | 27755 ft | 419 kts | 292° |
| 2026-04-21 19:43 | 37.31109 | -3.42799 | 28141 ft | 421 kts | 292° |
| 2026-04-21 19:43 | 37.32426 | -3.46094 | 28511 ft | 424 kts | 291° |
| 2026-04-21 19:44 | 37.33756 | -3.49426 | 28792 ft | 428 kts | 291° |
| 2026-04-21 19:44 | 37.35092 | -3.52773 | 29137 ft | 429 kts | 291° |
| 2026-04-21 19:44 | 37.36433 | -3.56133 | 29499 ft | 431 kts | 292° |
| 2026-04-21 19:44 | 37.38158 | -3.59253 | 29835 ft | 445 kts | 310° |
| 2026-04-21 19:45 | 37.40678 | -3.61578 | 30274 ft | 455 kts | 328° |
| 2026-04-21 19:45 | 37.43657 | -3.62971 | 30734 ft | 462 kts | 345° |
| 2026-04-21 19:45 | 37.46893 | -3.63286 | 31080 ft | 469 kts | 356° |
| 2026-04-21 19:45 | 37.50153 | -3.63214 | 31409 ft | 470 kts | 358° |
| 2026-04-21 19:46 | 37.53430 | -3.63090 | 31721 ft | 471 kts | 358° |
| 2026-04-21 19:46 | 37.56703 | -3.62989 | 32069 ft | 470 kts | 357° |
| 2026-04-21 19:46 | 37.59971 | -3.62933 | 32468 ft | 468 kts | 357° |
| 2026-04-21 19:46 | 37.63223 | -3.62905 | 32818 ft | 467 kts | 356° |
| 2026-04-21 19:47 | 37.66431 | -3.62886 | 33161 ft | 467 kts | 356° |
| 2026-04-21 19:47 | 37.69667 | -3.62865 | 33621 ft | 463 kts | 356° |
| 2026-04-21 19:47 | 37.72890 | -3.62842 | 33908 ft | 464 kts | 356° |
| 2026-04-21 19:48 | 37.79418 | -3.62792 | 33899 ft | 471 kts | 356° |
| 2026-04-21 19:48 | 37.85951 | -3.62735 | 33876 ft | 466 kts | 356° |
| 2026-04-21 19:49 | 37.92405 | -3.62682 | 33893 ft | 464 kts | 356° |
| 2026-04-21 19:49 | 37.98868 | -3.62632 | 33890 ft | 465 kts | 356° |
| 2026-04-21 19:50 | 38.04256 | -3.62589 | 33881 ft | 466 kts | 356° |
| 2026-04-21 19:50 | 38.11856 | -3.62528 | 33879 ft | 468 kts | 356° |
| 2026-04-21 19:51 | 38.18383 | -3.62332 | 33887 ft | 471 kts | 360° |
| 2026-04-21 19:51 | 38.24935 | -3.61682 | 33882 ft | 473 kts | 1° |
| 2026-04-21 19:52 | 38.31512 | -3.60960 | 33888 ft | 475 kts | 1° |
| 2026-04-21 19:52 | 38.38079 | -3.60287 | 33883 ft | 476 kts | 1° |
| 2026-04-21 19:53 | 38.44685 | -3.59638 | 33891 ft | 476 kts | 0° |
| 2026-04-21 19:53 | 38.51281 | -3.58997 | 33895 ft | 475 kts | 1° |
| 2026-04-21 19:54 | 38.57867 | -3.58354 | 33890 ft | 475 kts | 1° |
| 2026-04-21 19:54 | 38.64452 | -3.57708 | 33892 ft | 474 kts | 0° |
| 2026-04-21 19:55 | 38.71033 | -3.57060 | 33892 ft | 474 kts | 0° |
| 2026-04-21 19:55 | 38.77560 | -3.56418 | 33887 ft | 474 kts | 0° |
| 2026-04-21 19:56 | 38.84126 | -3.55771 | 33900 ft | 474 kts | 0° |
| 2026-04-21 19:56 | 38.89637 | -3.55227 | 33887 ft | 474 kts | 0° |